Flight Track Log - Related Links

Times and Time Zones

All times are in EDT time to prevent confusion due to time zone crossing. See the N966QS flight status page for this flight to view local times or setup timezone preferences in your user account.

Time Position Orientation Groundspeed Altitude Reporting Facility
EDT Latitude Longitude Course Direction KTS MPH feet Rate Location/Type
Thu 07:58:10 PM 40.8167 -74.1333 237° Southwest 198 228 1,600  Level New York TRACON
Thu 07:59:10 PM 40.8167 -74.2167 270° West 207 238 3,800 3,300 Climbing New York TRACON
Thu 08:00:10 PM 40.8167 -74.3000 270° West 263 303 8,200 3,200 Climbing New York TRACON
Thu 08:01:10 PM 40.8167 -74.4167 270° West 337 388 10,200 1,450 Climbing New York TRACON
Thu 08:02:10 PM 40.8167 -74.5333 270° West 347 399 11,100 619 Climbing New York TRACON
Thu 08:03:00 PM 40.5876 -74.8914 237° Southwest  Level FlightAware Approximate
Thu 08:03:16 PM 40.8369 -74.6658 281° West 294 338 11,500  Level New York Center
Thu 08:04:15 PM 40.8425 -74.7511 275° West 279 321 12,000 650 Climbing New York Center
Thu 08:05:16 PM 40.7747 -74.7856 201° Southwest 216 249 12,800 1,950 Climbing New York Center
Thu 08:06:15 PM 40.7206 -74.8397 217° Southwest 249 287 15,900 2,150 Climbing New York Center
Thu 08:07:16 PM 40.6428 -74.9256 220° Southwest 313 360 17,100 1,300 Climbing New York Center
Thu 08:08:15 PM 40.5664 -75.0219 224° Southwest 363 418 18,500 1,600 Climbing New York Center
Thu 08:09:16 PM 40.5047 -75.1136 229° Southwest 377 434 20,300 1,869 Climbing New York Center
Thu 08:10:17 PM 40.4336 -75.2264 230° Southwest 397 457 22,300 1,983 Climbing New York Center
Thu 08:11:17 PM 40.3647 -75.3392 231° Southwest 408 470 24,300 2,034 Climbing New York Center
Thu 08:12:15 PM 40.2914 -75.4539 230° Southwest 414 476 26,300 2,017 Climbing New York Center
Thu 08:13:16 PM 40.2122 -75.5628 226° Southwest 414 476 28,300 1,934 Climbing New York Center
Thu 08:14:16 PM 40.1306 -75.6711 225° Southwest 419 482 30,200 1,950 Climbing New York Center
Thu 08:15:16 PM 40.0489 -75.7794 225° Southwest 425 489 32,200 2,000 Climbing New York Center
Thu 08:16:16 PM 39.9628 -75.8897 224° Southwest 431 496 34,200 1,810 Climbing New York Center
Thu 08:18:15 PM 39.7958 -76.1019 224° Southwest 419 482 37,600 1,475 Climbing Washington Center
Thu 08:19:15 PM 39.7100 -76.2092 224° Southwest 426 490 38,600 850 Climbing Washington Center
Thu 08:20:15 PM 39.6219 -76.3217 225° Southwest 438 504 39,300 700 Climbing Washington Center
Thu 08:21:15 PM 39.5336 -76.4283 223° Southwest 438 504 40,000 350 Climbing Washington Center
Thu 08:22:15 PM 39.4369 -76.5428 222° Southwest 450 518 40,000  Level Washington Center
Thu 08:23:15 PM 39.3464 -76.6625 226° Southwest 460 529 40,000  Level Washington Center
Thu 08:24:15 PM 39.2514 -76.7789 224° Southwest 471 542 40,000  Level Washington Center
Thu 08:25:15 PM 39.1586 -76.8978 225° Southwest 471 542 40,000  Level Washington Center
Thu 08:26:15 PM 39.0675 -77.0139 225° Southwest 466 536 40,000  Level Washington Center
Thu 08:27:15 PM 38.9764 -77.1297 225° Southwest 461 531 40,000  Level Washington Center
Thu 08:28:15 PM 38.8875 -77.2425 225° Southwest 461 531 40,000  Level Washington Center
Thu 08:29:15 PM 38.7961 -77.3575 224° Southwest 461 531 40,000  Level Washington Center
Thu 08:30:15 PM 38.7047 -77.4697 224° Southwest 461 531 40,000  Level Washington Center
Thu 08:31:15 PM 38.6133 -77.5844 224° Southwest 461 531 40,000  Level Washington Center
Thu 08:32:15 PM 38.5175 -77.7092 226° Southwest 461 531 40,000  Level Washington Center
Thu 08:33:15 PM 38.4236 -77.8231 224° Southwest 461 531 40,000  Level Washington Center
Thu 08:34:15 PM 38.3317 -77.9369 224° Southwest 456 525 40,000  Level Washington Center
Thu 08:35:15 PM 38.2397 -78.0503 224° Southwest 461 531 40,000  Level Washington Center
Thu 08:36:15 PM 38.1478 -78.1661 225° Southwest 461 531 40,000  Level Washington Center
Thu 08:37:15 PM 38.0578 -78.2764 224° Southwest 461 531 40,000  Level Washington Center
Thu 08:38:15 PM 37.9761 -78.3789 225° Southwest 461 531 40,000  Level Washington Center
Thu 08:39:15 PM 37.8861 -78.4861 223° Southwest 456 525 40,000  Level Washington Center
Thu 08:40:15 PM 37.7808 -78.6108 223° Southwest 461 531 40,000 -100 Level Washington Center
Thu 08:41:15 PM 37.6903 -78.7225 224° Southwest 461 531 39,800 -700 Descending Washington Center
Thu 08:42:15 PM 37.5978 -78.8317 223° Southwest 461 531 38,600 -1,200 Descending Washington Center
Thu 08:43:15 PM 37.5028 -78.9428 223° Southwest 461 531 37,400 -1,150 Descending Washington Center
Thu 08:44:15 PM 37.4186 -79.0436 224° Southwest 461 531 36,300 -1,150 Descending Washington Center
Thu 08:45:15 PM 37.3281 -79.1492 223° Southwest 461 531 35,100 -1,200 Descending Washington Center
Thu 08:46:15 PM 37.2331 -79.2544 221° Southwest 461 531 33,900 -1,800 Descending Washington Center
Thu 08:47:15 PM 37.1258 -79.3431 213° Southwest 461 531 31,500 -2,650 Descending Washington Center
Thu 08:48:15 PM 37.0167 -79.4339 214° Southwest 467 537 28,600 -2,250 Descending Washington Center
Thu 08:49:15 PM 36.9094 -79.5194 213° Southwest 473 544 27,000 -1,650 Descending Washington Center
Thu 08:50:15 PM 36.7958 -79.6150 214° Southwest 468 539 25,300 -1,400 Descending Washington Center
Thu 08:51:15 PM 36.6928 -79.7003 214° Southwest 468 539 24,200 -650 Descending Washington Center
Thu 08:52:15 PM 36.5853 -79.7878 213° Southwest 462 532 24,000 -313 Descending Washington Center
Thu 08:53:29 PM 36.4675 -79.8825 213° Southwest 462 532 23,500 -716 Descending Atlanta Center
Thu 08:54:29 PM 36.3639 -79.9625 212° Southwest 457 526 22,400 -750 Descending Atlanta Center
Thu 08:55:29 PM 36.2644 -80.0475 215° Southwest 452 520 22,000 -550 Descending Atlanta Center
Thu 08:56:29 PM 36.1978 -80.1742 237° Southwest 410 472 21,300 -1,250 Descending Atlanta Center
Thu 08:57:29 PM 36.1744 -80.3039 257° West 372 428 19,500 -1,450 Descending Atlanta Center
Thu 08:58:29 PM 36.1589 -80.4075 259° West 354 407 18,400 -1,100 Descending Atlanta Center
Thu 08:59:29 PM 36.1172 -80.4839 236° Southwest 278 320 17,300 -1,400 Descending Atlanta Center
Thu 09:00:29 PM 36.0378 -80.4719 173° South 246 283 15,600 -1,500 Descending Atlanta Center
Thu 09:01:29 PM 35.9392 -80.4583 174° South 281 323 14,300 -1,150 Descending Atlanta Center
Thu 09:02:29 PM 35.8469 -80.4419 172° South 318 366 13,300 -650 Descending Atlanta Center
Thu 09:03:29 PM 35.7686 -80.4736 198° South 325 374 13,000 -850 Descending Atlanta Center
Thu 09:04:29 PM 35.7008 -80.5097 203° Southwest 294 338 11,600 -1,487 Descending Atlanta Center
Thu 09:05:26 PM 35.6250 -80.5514 204° Southwest 288 331 10,100 -1,525 Descending Atlanta Center
Thu 09:06:27 PM 35.5683 -80.6150 222° Southwest 275 316 8,600 -1,463 Descending Atlanta Center
Thu 09:07:29 PM 35.5158 -80.6783 224° Southwest 278 320 7,100 -1,426 Descending Atlanta Center
Thu 09:08:29 PM 35.4633 -80.7469 227° Southwest 278 320 5,700 -1,550 Descending Atlanta Center
Thu 09:09:29 PM 35.4069 -80.8231 228° Southwest 278 320 4,000 -1,200 Descending Atlanta Center
Thu 09:10:29 PM 35.3519 -80.8761 218° Southwest 267 307 3,300 -828 Descending Atlanta Center
Thu 09:11:25 PM 35.3114 -80.9183 220° Southwest 204 235 2,400 -829 Descending Atlanta Center
Thu 09:12:32 PM 35.2661 -80.9431 204° Southwest 138 159 1,600 -716 Descending Atlanta Center
Thu 09:14:00 PM 35.2137 -80.9491 217° Southwest  Level Estimated
Thu 09:21:00 PM 35.2137 -80.9491 217° Southwest  Level Estimated
Thu 09:22:00 PM 35.2137 -80.9491 217° Southwest  Level Estimated

Login

Don't have an account? Register now (free) for customized features, flight alerts, and more!